createdAt,value
2023-05-30T00:00:07.588Z,19.3
2023-05-30T00:05:45.265Z,19.3
2023-05-30T00:11:37.270Z,19.3
2023-05-30T00:16:57.679Z,19.3
2023-05-30T00:22:33.909Z,19.3
2023-05-30T00:28:25.803Z,19.3
2023-05-30T00:34:18.046Z,19.3
2023-05-30T00:39:54.399Z,19.3
2023-05-30T00:45:15.435Z,19.3
2023-05-30T00:50:52.147Z,19.3
2023-05-30T00:56:28.037Z,19.3
2023-05-30T01:02:20.735Z,19.3
2023-05-30T01:08:12.757Z,19.3
2023-05-30T01:14:04.232Z,19.3
2023-05-30T01:19:56.377Z,19.3
2023-05-30T01:25:47.908Z,19.3
2023-05-30T01:31:23.687Z,19.2
2023-05-30T01:37:16.097Z,19.2
2023-05-30T01:43:08.559Z,19.2
2023-05-30T01:48:44.771Z,19.2
2023-05-30T01:54:21.461Z,19.2
2023-05-30T02:00:13.192Z,19.2
2023-05-30T02:06:05.694Z,19.2
2023-05-30T02:11:59.145Z,19.2
2023-05-30T02:17:51.536Z,19.1
2023-05-30T02:23:43.947Z,19.2
2023-05-30T02:29:36.387Z,19.1
2023-05-30T02:35:12.236Z,19.1
2023-05-30T02:41:05.943Z,19.1
2023-05-30T02:47:10.845Z,19.1
2023-05-30T02:53:02.378Z,19.1
2023-05-30T02:58:53.207Z,19.1
2023-05-30T03:04:30.856Z,19.1
2023-05-30T03:10:34.483Z,19.1
2023-05-30T03:16:26.162Z,19.1
2023-05-30T03:22:18.468Z,19.1
2023-05-30T03:27:54.650Z,19.1
2023-05-30T03:33:46.997Z,19.1
2023-05-30T03:39:42.327Z,19.1
2023-05-30T03:45:34.071Z,19.1
2023-05-30T03:51:26.600Z,19.1
2023-05-30T03:57:18.276Z,19.1
2023-05-30T04:03:10.005Z,19.1
2023-05-30T04:09:02.002Z,19.1
2023-05-30T04:14:53.739Z,19.1
2023-05-30T04:20:45.965Z,19.1
2023-05-30T04:26:38.037Z,19.1
2023-05-30T04:32:28.080Z,19
2023-05-30T04:38:20.930Z,19
2023-05-30T04:44:13.297Z,19.1
2023-05-30T04:50:18.149Z,19
2023-05-30T04:55:54.482Z,19
2023-05-30T05:01:47.168Z,19
2023-05-30T05:07:56.254Z,19
2023-05-30T05:13:48.933Z,19
2023-05-30T05:19:40.767Z,19
2023-05-30T05:25:19.738Z,19
2023-05-30T05:30:56.034Z,19
2023-05-30T05:36:48.196Z,19
2023-05-30T05:42:40.683Z,19
2023-05-30T05:48:33.385Z,19
2023-05-30T05:54:25.066Z,19
2023-05-30T06:00:02.334Z,19
2023-05-30T06:05:40.073Z,18.9
2023-05-30T06:11:16.276Z,18.9
2023-05-30T06:16:52.994Z,19
2023-05-30T06:22:47.581Z,19
2023-05-30T06:28:38.761Z,18.9
2023-05-30T06:34:28.670Z,18.9
2023-05-30T06:40:20.533Z,18.9
2023-05-30T06:45:56.162Z,19
2023-05-30T06:51:34.154Z,19
2023-05-30T06:57:10.200Z,18.9
2023-05-30T07:03:02.404Z,18.9
2023-05-30T07:08:55.871Z,18.9
2023-05-30T07:14:48.481Z,19
2023-05-30T07:20:52.482Z,18.9
2023-05-30T07:26:45.083Z,19
2023-05-30T07:32:37.230Z,19
2023-05-30T07:38:28.651Z,19
2023-05-30T07:44:20.376Z,19
2023-05-30T07:50:12.320Z,19
2023-05-30T07:56:03.459Z,19
2023-05-30T08:01:54.015Z,19
2023-05-30T08:07:46.484Z,19
2023-05-30T08:13:22.067Z,19
2023-05-30T08:19:13.699Z,19
2023-05-30T08:25:08.102Z,19
2023-05-30T08:31:00.324Z,19
2023-05-30T08:36:52.043Z,19
2023-05-30T08:42:48.479Z,19
2023-05-30T08:48:41.426Z,19
2023-05-30T08:54:17.597Z,19.1
2023-05-30T09:00:14.213Z,19
2023-05-30T09:06:06.222Z,19.1
2023-05-30T09:11:56.902Z,19.1
2023-05-30T09:17:19.367Z,19.1
2023-05-30T09:23:12.631Z,19
2023-05-30T09:29:03.548Z,19.1
2023-05-30T09:34:26.480Z,19.1
2023-05-30T09:40:18.179Z,19.1
2023-05-30T09:45:53.440Z,19.1
2023-05-30T09:51:46.660Z,19.1
2023-05-30T09:57:22.668Z,19.1
2023-05-30T10:03:15.545Z,19.1
2023-05-30T10:09:09.670Z,19.1
2023-05-30T10:14:44.879Z,19.1
2023-05-30T10:20:37.081Z,19.1
2023-05-30T10:26:30.551Z,19.1
2023-05-30T10:32:23.026Z,19.1
2023-05-30T10:38:37.913Z,19.1
2023-05-30T10:54:33.102Z,19.1
2023-05-30T11:00:25.209Z,19.1
2023-05-30T11:06:23.374Z,19.1
2023-05-30T11:12:14.760Z,19.1
2023-05-30T11:18:06.450Z,19.1
2023-05-30T11:23:58.956Z,19.1
2023-05-30T11:29:34.178Z,19.1
2023-05-30T11:35:30.814Z,19.1
2023-05-30T11:41:07.373Z,19.1
2023-05-30T11:46:59.915Z,19.1
2023-05-30T11:53:18.748Z,19.1
2023-05-30T11:58:54.363Z,19.1
2023-05-30T12:04:46.833Z,19.1
2023-05-30T12:10:38.572Z,19.1
2023-05-30T12:16:31.210Z,19.1
2023-05-30T12:22:24.070Z,19.1
2023-05-30T12:28:14.993Z,19.1
2023-05-30T12:34:09.056Z,19.1
2023-05-30T12:40:04.809Z,19.1
2023-05-30T12:45:56.149Z,19.1
2023-05-30T12:51:47.332Z,19.2
2023-05-30T12:57:40.337Z,19.2
2023-05-30T13:03:32.797Z,19.2
2023-05-30T13:09:24.166Z,19.2
2023-05-30T13:15:15.055Z,19.2
2023-05-30T13:20:51.795Z,19.2
2023-05-30T13:26:27.979Z,19.2
2023-05-30T13:32:19.356Z,19.2
2023-05-30T13:38:11.701Z,19.2
2023-05-30T13:44:02.877Z,19.3
2023-05-30T13:49:54.300Z,19.3
2023-05-30T13:56:12.892Z,19.3
2023-05-30T14:01:49.078Z,19.3
2023-05-30T14:07:28.497Z,19.3
2023-05-30T14:13:19.719Z,19.3
2023-05-30T14:19:12.419Z,19.3
2023-05-30T14:24:48.028Z,19.3
2023-05-30T14:30:38.876Z,19.3
2023-05-30T14:36:30.285Z,19.3
2023-05-30T14:42:05.232Z,19.3
2023-05-30T14:47:58.993Z,19.4
2023-05-30T14:53:49.870Z,19.4
2023-05-30T14:59:42.165Z,19.4
2023-05-30T15:05:56.726Z,19.4
2023-05-30T15:11:49.681Z,19.4
2023-05-30T15:17:41.025Z,19.4
2023-05-30T15:23:33.162Z,19.4
2023-05-30T15:29:08.714Z,19.4
2023-05-30T15:35:00.073Z,19.5
2023-05-30T15:40:51.713Z,19.5
2023-05-30T15:46:27.506Z,19.5
2023-05-30T15:52:20.108Z,19.5
2023-05-30T15:58:11.129Z,19.5
2023-05-30T16:04:03.565Z,19.6
2023-05-30T16:09:55.046Z,19.6
2023-05-30T16:15:46.499Z,19.6
2023-05-30T16:21:38.966Z,19.6
2023-05-30T16:27:30.191Z,19.6
2023-05-30T16:33:22.440Z,19.6
2023-05-30T16:39:13.331Z,19.6
2023-05-30T16:45:19.999Z,19.6
2023-05-30T16:51:11.921Z,19.6
2023-05-30T16:57:07.743Z,19.6
2023-05-30T17:02:59.556Z,19.6
2023-05-30T17:08:35.262Z,19.6
2023-05-30T17:14:12.540Z,19.6
2023-05-30T17:20:18.795Z,19.6
2023-05-30T17:26:23.060Z,19.6
2023-05-30T17:32:15.507Z,19.6
2023-05-30T17:38:06.376Z,19.6
2023-05-30T17:43:57.557Z,19.6
2023-05-30T17:49:49.025Z,19.6
2023-05-30T17:55:44.023Z,19.6
2023-05-30T18:01:35.562Z,19.6
2023-05-30T18:07:34.529Z,19.6
2023-05-30T18:13:09.683Z,19.7
2023-05-30T18:19:01.863Z,19.6
2023-05-30T18:24:53.455Z,19.6
2023-05-30T18:30:45.254Z,19.7
2023-05-30T18:36:47.214Z,19.7
2023-05-30T18:42:39.141Z,19.6
2023-05-30T18:48:16.142Z,19.6
2023-05-30T18:53:40.386Z,19.6
2023-05-30T18:59:17.850Z,19.6
2023-05-30T19:05:11.545Z,19.6
2023-05-30T19:11:03.378Z,19.6
2023-05-30T19:16:57.301Z,19.6
2023-05-30T19:22:33.688Z,19.6
2023-05-30T19:28:09.648Z,19.6
2023-05-30T19:34:01.301Z,19.6
2023-05-30T19:39:37.457Z,19.6
2023-05-30T19:45:29.576Z,19.6
2023-05-30T19:51:21.441Z,19.6
2023-05-30T19:57:12.993Z,19.6
2023-05-30T20:03:04.716Z,19.6
2023-05-30T20:08:59.400Z,19.6
2023-05-30T20:14:51.760Z,19.6
2023-05-30T20:20:45.369Z,19.6
2023-05-30T20:26:38.279Z,19.6
2023-05-30T20:32:30.058Z,19.6
2023-05-30T20:37:50.990Z,19.6
2023-05-30T20:43:29.488Z,19.6
2023-05-30T20:49:06.802Z,19.6
2023-05-30T20:54:28.717Z,19.6
2023-05-30T21:00:20.993Z,19.6
2023-05-30T21:06:13.169Z,19.6
2023-05-30T21:11:50.631Z,19.6
2023-05-30T21:17:25.637Z,19.6
2023-05-30T21:23:17.338Z,19.6
2023-05-30T21:29:06.979Z,19.6
2023-05-30T21:34:58.134Z,19.6
2023-05-30T21:40:33.767Z,19.6
2023-05-30T21:46:26.966Z,19.6
2023-05-30T21:51:47.395Z,19.6
2023-05-30T21:57:22.842Z,19.6
2023-05-30T22:03:00.932Z,19.6
2023-05-30T22:08:37.541Z,19.6
2023-05-30T22:14:28.616Z,19.6
2023-05-30T22:20:25.972Z,19.6
2023-05-30T22:26:27.162Z,19.6
2023-05-30T22:32:03.699Z,19.6
2023-05-30T22:37:08.949Z,19.6
2023-05-30T22:42:30.896Z,19.6
2023-05-30T22:47:50.566Z,19.6
2023-05-30T22:53:41.079Z,19.6
2023-05-30T22:59:00.618Z,19.6
2023-05-30T23:04:36.956Z,19.6
2023-05-30T23:10:14.353Z,19.6
2023-05-30T23:15:49.858Z,19.6
2023-05-30T23:21:26.138Z,19.6
2023-05-30T23:26:46.333Z,19.6
2023-05-30T23:32:07.227Z,19.6
2023-05-30T23:37:27.257Z,19.6
2023-05-30T23:42:46.962Z,19.6
2023-05-30T23:48:07.237Z,19.6
2023-05-30T23:52:57.077Z,19.6
2023-05-30T23:58:32.758Z,19.6
